sensor_id;sensor_type;location;lat;lon;timestamp;temperature;humidity
65470;DHT22;52067;50.710;14.492;2024-01-30T00:00:54;-2.86;88.65
65470;DHT22;52067;50.710;14.492;2024-01-30T00:03:19;-2.66;88.31
65470;DHT22;52067;50.710;14.492;2024-01-30T00:05:45;-2.72;88.49
65470;DHT22;52067;50.710;14.492;2024-01-30T00:08:10;-2.64;88.61
65470;DHT22;52067;50.710;14.492;2024-01-30T00:10:36;-2.61;88.65
65470;DHT22;52067;50.710;14.492;2024-01-30T00:13:01;-2.76;88.80
65470;DHT22;52067;50.710;14.492;2024-01-30T00:15:27;-2.90;88.40
65470;DHT22;52067;50.710;14.492;2024-01-30T00:17:53;-2.82;88.04
65470;DHT22;52067;50.710;14.492;2024-01-30T00:20:18;-2.87;86.99
65470;DHT22;52067;50.710;14.492;2024-01-30T00:22:44;-2.89;88.07
65470;DHT22;52067;50.710;14.492;2024-01-30T00:25:09;-2.75;88.38
65470;DHT22;52067;50.710;14.492;2024-01-30T00:27:35;-2.89;87.94
65470;DHT22;52067;50.710;14.492;2024-01-30T00:30:00;-3.13;87.78
65470;DHT22;52067;50.710;14.492;2024-01-30T00:32:26;-2.97;87.96
65470;DHT22;52067;50.710;14.492;2024-01-30T00:34:51;-2.97;88.29
65470;DHT22;52067;50.710;14.492;2024-01-30T00:37:17;-2.99;87.36
65470;DHT22;52067;50.710;14.492;2024-01-30T00:39:42;-2.93;87.84
65470;DHT22;52067;50.710;14.492;2024-01-30T00:42:07;-2.77;87.86
65470;DHT22;52067;50.710;14.492;2024-01-30T00:44:35;-2.90;88.10
65470;DHT22;52067;50.710;14.492;2024-01-30T00:47:02;-2.77;88.83
65470;DHT22;52067;50.710;14.492;2024-01-30T00:49:28;-2.70;88.44
65470;DHT22;52067;50.710;14.492;2024-01-30T00:51:53;-2.73;87.88
65470;DHT22;52067;50.710;14.492;2024-01-30T00:54:19;-2.73;87.61
65470;DHT22;52067;50.710;14.492;2024-01-30T00:56:44;-2.72;87.34
65470;DHT22;52067;50.710;14.492;2024-01-30T00:59:11;-2.77;87.33
65470;DHT22;52067;50.710;14.492;2024-01-30T01:01:36;-2.75;87.34
65470;DHT22;52067;50.710;14.492;2024-01-30T01:04:02;-3.11;87.78
65470;DHT22;52067;50.710;14.492;2024-01-30T01:06:27;-3.04;87.34
65470;DHT22;52067;50.710;14.492;2024-01-30T01:08:52;-3.23;87.74
65470;DHT22;52067;50.710;14.492;2024-01-30T01:11:18;-3.10;88.41
65470;DHT22;52067;50.710;14.492;2024-01-30T01:13:43;-3.27;88.01
65470;DHT22;52067;50.710;14.492;2024-01-30T01:16:09;-3.55;88.31
65470;DHT22;52067;50.710;14.492;2024-01-30T01:18:34;-3.75;89.24
65470;DHT22;52067;50.710;14.492;2024-01-30T01:21:00;-3.51;89.22
65470;DHT22;52067;50.710;14.492;2024-01-30T01:23:26;-3.34;88.95
65470;DHT22;52067;50.710;14.492;2024-01-30T01:25:51;-3.33;88.45
65470;DHT22;52067;50.710;14.492;2024-01-30T01:28:17;-3.20;88.02
65470;DHT22;52067;50.710;14.492;2024-01-30T01:30:42;-3.21;88.00
65470;DHT22;52067;50.710;14.492;2024-01-30T01:33:08;-3.23;88.57
65470;DHT22;52067;50.710;14.492;2024-01-30T01:35:34;-3.15;88.36
65470;DHT22;52067;50.710;14.492;2024-01-30T01:37:59;-3.20;88.29
65470;DHT22;52067;50.710;14.492;2024-01-30T01:40:29;-3.18;87.71
65470;DHT22;52067;50.710;14.492;2024-01-30T01:42:55;-3.14;87.54
65470;DHT22;52067;50.710;14.492;2024-01-30T01:45:21;-3.35;87.40
65470;DHT22;52067;50.710;14.492;2024-01-30T01:47:50;-3.34;87.51
65470;DHT22;52067;50.710;14.492;2024-01-30T01:50:16;-3.24;87.74
65470;DHT22;52067;50.710;14.492;2024-01-30T01:52:49;-3.13;87.71
65470;DHT22;52067;50.710;14.492;2024-01-30T01:55:16;-3.52;88.02
65470;DHT22;52067;50.710;14.492;2024-01-30T01:57:44;-3.64;88.08
65470;DHT22;52067;50.710;14.492;2024-01-30T02:00:10;-3.50;87.92
65470;DHT22;52067;50.710;14.492;2024-01-30T02:02:36;-3.51;87.56
65470;DHT22;52067;50.710;14.492;2024-01-30T02:05:02;-3.75;87.80
65470;DHT22;52067;50.710;14.492;2024-01-30T02:07:29;-3.68;88.09
65470;DHT22;52067;50.710;14.492;2024-01-30T02:09:55;-3.71;88.20
65470;DHT22;52067;50.710;14.492;2024-01-30T02:12:20;-3.85;87.88
65470;DHT22;52067;50.710;14.492;2024-01-30T02:14:49;-3.96;88.12
65470;DHT22;52067;50.710;14.492;2024-01-30T02:17:18;-3.79;87.88
65470;DHT22;52067;50.710;14.492;2024-01-30T02:19:44;-3.89;88.10
65470;DHT22;52067;50.710;14.492;2024-01-30T02:22:09;-3.75;87.90
65470;DHT22;52067;50.710;14.492;2024-01-30T02:24:34;-3.65;87.83
65470;DHT22;52067;50.710;14.492;2024-01-30T02:27:00;-3.56;87.93
65470;DHT22;52067;50.710;14.492;2024-01-30T02:29:25;-3.59;88.52
65470;DHT22;52067;50.710;14.492;2024-01-30T02:31:51;-3.56;88.33
65470;DHT22;52067;50.710;14.492;2024-01-30T02:34:18;-3.58;88.45
65470;DHT22;52067;50.710;14.492;2024-01-30T02:36:44;-3.66;88.71
65470;DHT22;52067;50.710;14.492;2024-01-30T02:39:10;-3.85;88.28
65470;DHT22;52067;50.710;14.492;2024-01-30T02:41:36;-3.72;87.80
65470;DHT22;52067;50.710;14.492;2024-01-30T02:44:02;-3.86;87.57
65470;DHT22;52067;50.710;14.492;2024-01-30T02:46:28;-3.69;87.46
65470;DHT22;52067;50.710;14.492;2024-01-30T02:48:53;-3.81;87.47
65470;DHT22;52067;50.710;14.492;2024-01-30T02:51:19;-4.21;89.46
65470;DHT22;52067;50.710;14.492;2024-01-30T02:53:44;-4.07;89.40
65470;DHT22;52067;50.710;14.492;2024-01-30T02:56:09;-4.02;89.13
65470;DHT22;52067;50.710;14.492;2024-01-30T02:58:39;-4.04;89.90
65470;DHT22;52067;50.710;14.492;2024-01-30T03:01:05;-4.13;89.07
65470;DHT22;52067;50.710;14.492;2024-01-30T03:03:31;-4.07;88.75
65470;DHT22;52067;50.710;14.492;2024-01-30T03:05:57;-3.94;88.15
65470;DHT22;52067;50.710;14.492;2024-01-30T03:08:22;-4.02;88.30
65470;DHT22;52067;50.710;14.492;2024-01-30T03:10:48;-3.99;88.00
65470;DHT22;52067;50.710;14.492;2024-01-30T03:13:13;-3.83;87.88
65470;DHT22;52067;50.710;14.492;2024-01-30T03:15:39;-3.89;87.69
65470;DHT22;52067;50.710;14.492;2024-01-30T03:18:04;-3.89;87.59
65470;DHT22;52067;50.710;14.492;2024-01-30T03:20:30;-3.81;88.07
65470;DHT22;52067;50.710;14.492;2024-01-30T03:22:55;-4.03;87.77
65470;DHT22;52067;50.710;14.492;2024-01-30T03:25:21;-3.94;87.77
65470;DHT22;52067;50.710;14.492;2024-01-30T03:27:47;-4.30;89.24
65470;DHT22;52067;50.710;14.492;2024-01-30T03:30:12;-3.99;89.38
65470;DHT22;52067;50.710;14.492;2024-01-30T03:32:38;-4.17;89.43
65470;DHT22;52067;50.710;14.492;2024-01-30T03:35:03;-4.10;89.71
65470;DHT22;52067;50.710;14.492;2024-01-30T03:37:29;-4.20;89.40
65470;DHT22;52067;50.710;14.492;2024-01-30T03:39:54;-4.03;89.30
65470;DHT22;52067;50.710;14.492;2024-01-30T03:42:20;-3.87;88.89
65470;DHT22;52067;50.710;14.492;2024-01-30T03:44:45;-3.93;88.13
65470;DHT22;52067;50.710;14.492;2024-01-30T03:47:11;-3.82;87.93
65470;DHT22;52067;50.710;14.492;2024-01-30T03:49:36;-3.78;88.04
65470;DHT22;52067;50.710;14.492;2024-01-30T03:52:02;-3.75;88.01
65470;DHT22;52067;50.710;14.492;2024-01-30T03:54:27;-3.62;87.77
65470;DHT22;52067;50.710;14.492;2024-01-30T03:56:53;-3.69;87.36
65470;DHT22;52067;50.710;14.492;2024-01-30T03:59:19;-3.78;86.96
65470;DHT22;52067;50.710;14.492;2024-01-30T04:01:50;-3.97;86.94
65470;DHT22;52067;50.710;14.492;2024-01-30T04:04:17;-4.07;87.43
65470;DHT22;52067;50.710;14.492;2024-01-30T04:06:44;-3.96;87.48
65470;DHT22;52067;50.710;14.492;2024-01-30T04:09:09;-3.85;87.04
65470;DHT22;52067;50.710;14.492;2024-01-30T04:11:35;-4.09;87.19
65470;DHT22;52067;50.710;14.492;2024-01-30T04:14:00;-4.07;87.43
65470;DHT22;52067;50.710;14.492;2024-01-30T04:16:26;-3.97;87.41
65470;DHT22;52067;50.710;14.492;2024-01-30T04:18:51;-4.14;87.68
65470;DHT22;52067;50.710;14.492;2024-01-30T04:21:17;-4.00;87.58
65470;DHT22;52067;50.710;14.492;2024-01-30T04:23:42;-4.11;87.47
65470;DHT22;52067;50.710;14.492;2024-01-30T04:26:08;-4.10;87.35
65470;DHT22;52067;50.710;14.492;2024-01-30T04:28:33;-4.27;87.34
65470;DHT22;52067;50.710;14.492;2024-01-30T04:30:59;-4.40;87.86
65470;DHT22;52067;50.710;14.492;2024-01-30T04:33:24;-4.16;87.80
65470;DHT22;52067;50.710;14.492;2024-01-30T04:35:50;-4.25;87.75
65470;DHT22;52067;50.710;14.492;2024-01-30T04:38:15;-4.14;87.42
65470;DHT22;52067;50.710;14.492;2024-01-30T04:40:41;-4.37;87.83
65470;DHT22;52067;50.710;14.492;2024-01-30T04:43:06;-4.21;87.28
65470;DHT22;52067;50.710;14.492;2024-01-30T04:45:31;-4.16;87.32
65470;DHT22;52067;50.710;14.492;2024-01-30T04:47:57;-4.28;87.51
65470;DHT22;52067;50.710;14.492;2024-01-30T04:50:23;-4.10;86.95
65470;DHT22;52067;50.710;14.492;2024-01-30T04:52:48;-4.14;87.18
65470;DHT22;52067;50.710;14.492;2024-01-30T04:55:14;-4.23;87.27
65470;DHT22;52067;50.710;14.492;2024-01-30T04:57:39;-4.13;86.89
65470;DHT22;52067;50.710;14.492;2024-01-30T05:00:05;-4.07;86.99
65470;DHT22;52067;50.710;14.492;2024-01-30T05:02:31;-4.09;87.06
65470;DHT22;52067;50.710;14.492;2024-01-30T05:04:56;-4.11;87.21
65470;DHT22;52067;50.710;14.492;2024-01-30T05:07:24;-4.17;86.57
65470;DHT22;52067;50.710;14.492;2024-01-30T05:09:50;-4.27;87.10
65470;DHT22;52067;50.710;14.492;2024-01-30T05:12:15;-4.31;86.95
65470;DHT22;52067;50.710;14.492;2024-01-30T05:14:41;-4.27;87.01
65470;DHT22;52067;50.710;14.492;2024-01-30T05:17:06;-4.28;86.99
65470;DHT22;52067;50.710;14.492;2024-01-30T05:19:33;-4.37;87.08
65470;DHT22;52067;50.710;14.492;2024-01-30T05:21:58;-4.31;86.98
65470;DHT22;52067;50.710;14.492;2024-01-30T05:24:23;-4.33;87.32
65470;DHT22;52067;50.710;14.492;2024-01-30T05:26:49;-4.21;87.26
65470;DHT22;52067;50.710;14.492;2024-01-30T05:29:16;-4.45;87.17
65470;DHT22;52067;50.710;14.492;2024-01-30T05:31:41;-4.31;87.23
65470;DHT22;52067;50.710;14.492;2024-01-30T05:34:07;-4.28;87.04
65470;DHT22;52067;50.710;14.492;2024-01-30T05:36:33;-4.40;87.06
65470;DHT22;52067;50.710;14.492;2024-01-30T05:38:58;-4.35;87.13
65470;DHT22;52067;50.710;14.492;2024-01-30T05:41:24;-4.45;87.19
65470;DHT22;52067;50.710;14.492;2024-01-30T05:43:49;-4.30;87.07
65470;DHT22;52067;50.710;14.492;2024-01-30T05:46:15;-4.51;87.17
65470;DHT22;52067;50.710;14.492;2024-01-30T05:48:42;-4.47;87.68
65470;DHT22;52067;50.710;14.492;2024-01-30T05:51:07;-4.51;87.55
65470;DHT22;52067;50.710;14.492;2024-01-30T05:53:33;-4.48;87.72
65470;DHT22;52067;50.710;14.492;2024-01-30T05:56:01;-4.40;87.48
65470;DHT22;52067;50.710;14.492;2024-01-30T05:58:26;-4.40;87.55
65470;DHT22;52067;50.710;14.492;2024-01-30T06:00:51;-4.50;87.38
65470;DHT22;52067;50.710;14.492;2024-01-30T06:03:17;-4.37;87.76
65470;DHT22;52067;50.710;14.492;2024-01-30T06:05:42;-4.33;87.96
65470;DHT22;52067;50.710;14.492;2024-01-30T06:08:08;-4.41;87.67
65470;DHT22;52067;50.710;14.492;2024-01-30T06:10:33;-4.33;87.82
65470;DHT22;52067;50.710;14.492;2024-01-30T06:12:58;-4.20;88.32
65470;DHT22;52067;50.710;14.492;2024-01-30T06:15:24;-4.34;87.39
65470;DHT22;52067;50.710;14.492;2024-01-30T06:17:49;-4.21;86.84
65470;DHT22;52067;50.710;14.492;2024-01-30T06:20:15;-4.54;87.22
65470;DHT22;52067;50.710;14.492;2024-01-30T06:22:40;-4.54;87.47
65470;DHT22;52067;50.710;14.492;2024-01-30T06:25:06;-4.34;87.62
65470;DHT22;52067;50.710;14.492;2024-01-30T06:27:31;-4.31;87.46
65470;DHT22;52067;50.710;14.492;2024-01-30T06:29:56;-4.38;87.04
65470;DHT22;52067;50.710;14.492;2024-01-30T06:32:22;-4.30;87.25
65470;DHT22;52067;50.710;14.492;2024-01-30T06:34:47;-4.34;87.25
65470;DHT22;52067;50.710;14.492;2024-01-30T06:37:13;-4.31;87.28
65470;DHT22;52067;50.710;14.492;2024-01-30T06:39:38;-4.25;87.51
65470;DHT22;52067;50.710;14.492;2024-01-30T06:42:04;-4.34;87.17
65470;DHT22;52067;50.710;14.492;2024-01-30T06:44:30;-4.21;87.06
65470;DHT22;52067;50.710;14.492;2024-01-30T06:46:55;-4.25;87.01
65470;DHT22;52067;50.710;14.492;2024-01-30T06:49:21;-4.38;86.82
65470;DHT22;52067;50.710;14.492;2024-01-30T06:51:47;-4.37;86.81
65470;DHT22;52067;50.710;14.492;2024-01-30T06:54:12;-4.38;86.96
65470;DHT22;52067;50.710;14.492;2024-01-30T06:56:38;-4.37;86.91
65470;DHT22;52067;50.710;14.492;2024-01-30T06:59:04;-4.33;86.79
65470;DHT22;52067;50.710;14.492;2024-01-30T07:01:30;-4.28;86.82
65470;DHT22;52067;50.710;14.492;2024-01-30T07:03:56;-4.45;87.15
65470;DHT22;52067;50.710;14.492;2024-01-30T07:06:22;-4.18;87.14
65470;DHT22;52067;50.710;14.492;2024-01-30T07:08:49;-4.00;86.76
65470;DHT22;52067;50.710;14.492;2024-01-30T07:11:21;-4.13;87.34
65470;DHT22;52067;50.710;14.492;2024-01-30T07:13:47;-4.40;87.33
65470;DHT22;52067;50.710;14.492;2024-01-30T07:16:14;-4.16;87.00
65470;DHT22;52067;50.710;14.492;2024-01-30T07:18:39;-3.99;87.20
65470;DHT22;52067;50.710;14.492;2024-01-30T07:21:04;-3.99;86.81
65470;DHT22;52067;50.710;14.492;2024-01-30T07:23:30;-4.27;87.06
65470;DHT22;52067;50.710;14.492;2024-01-30T07:25:55;-4.21;87.85
65470;DHT22;52067;50.710;14.492;2024-01-30T07:28:21;-4.14;87.66
65470;DHT22;52067;50.710;14.492;2024-01-30T07:30:46;-4.11;88.04
65470;DHT22;52067;50.710;14.492;2024-01-30T07:33:13;-3.86;87.50
65470;DHT22;52067;50.710;14.492;2024-01-30T07:35:39;-3.69;87.48
65470;DHT22;52067;50.710;14.492;2024-01-30T07:38:04;-3.51;87.19
65470;DHT22;52067;50.710;14.492;2024-01-30T07:40:29;-3.41;87.05
65470;DHT22;52067;50.710;14.492;2024-01-30T07:42:55;-3.23;86.76
65470;DHT22;52067;50.710;14.492;2024-01-30T07:45:20;-3.23;86.82
65470;DHT22;52067;50.710;14.492;2024-01-30T07:47:50;-3.28;87.14
65470;DHT22;52067;50.710;14.492;2024-01-30T07:50:15;-3.14;87.39
65470;DHT22;52067;50.710;14.492;2024-01-30T07:52:42;-3.04;87.17
65470;DHT22;52067;50.710;14.492;2024-01-30T07:55:07;-2.76;87.04
65470;DHT22;52067;50.710;14.492;2024-01-30T07:57:33;-2.64;86.83
65470;DHT22;52067;50.710;14.492;2024-01-30T07:59:59;-2.54;87.19
65470;DHT22;52067;50.710;14.492;2024-01-30T08:02:25;-2.55;87.49
65470;DHT22;52067;50.710;14.492;2024-01-30T08:04:50;-2.49;87.69
65470;DHT22;52067;50.710;14.492;2024-01-30T08:07:16;-2.45;87.51
65470;DHT22;52067;50.710;14.492;2024-01-30T08:09:43;-2.48;88.12
65470;DHT22;52067;50.710;14.492;2024-01-30T08:12:08;-2.52;88.50
65470;DHT22;52067;50.710;14.492;2024-01-30T08:14:34;-2.42;88.87
65470;DHT22;52067;50.710;14.492;2024-01-30T08:16:59;-2.11;88.24
65470;DHT22;52067;50.710;14.492;2024-01-30T08:19:25;-1.94;88.08
65470;DHT22;52067;50.710;14.492;2024-01-30T08:21:50;-1.80;88.19
65470;DHT22;52067;50.710;14.492;2024-01-30T08:24:15;-1.62;88.05
65470;DHT22;52067;50.710;14.492;2024-01-30T08:26:41;-1.18;87.86
65470;DHT22;52067;50.710;14.492;2024-01-30T08:29:06;-0.96;87.03
65470;DHT22;52067;50.710;14.492;2024-01-30T08:31:32;-0.73;86.93
65470;DHT22;52067;50.710;14.492;2024-01-30T08:33:57;-0.43;86.52
65470;DHT22;52067;50.710;14.492;2024-01-30T08:36:23;-0.23;86.10
65470;DHT22;52067;50.710;14.492;2024-01-30T08:38:48;-0.08;86.67
65470;DHT22;52067;50.710;14.492;2024-01-30T08:41:14;0.13;86.93
65470;DHT22;52067;50.710;14.492;2024-01-30T08:43:39;0.33;87.04
65470;DHT22;52067;50.710;14.492;2024-01-30T08:46:04;0.47;86.90
65470;DHT22;52067;50.710;14.492;2024-01-30T08:48:30;0.71;86.46
65470;DHT22;52067;50.710;14.492;2024-01-30T08:50:55;0.95;86.36
65470;DHT22;52067;50.710;14.492;2024-01-30T08:53:21;1.08;86.01
65470;DHT22;52067;50.710;14.492;2024-01-30T08:55:46;1.19;85.97
65470;DHT22;52067;50.710;14.492;2024-01-30T08:58:12;1.32;85.75
65470;DHT22;52067;50.710;14.492;2024-01-30T09:00:37;1.12;85.20
65470;DHT22;52067;50.710;14.492;2024-01-30T09:03:03;1.46;85.12
65470;DHT22;52067;50.710;14.492;2024-01-30T09:05:29;1.66;84.88
65470;DHT22;52067;50.710;14.492;2024-01-30T09:07:54;1.99;84.37
65470;DHT22;52067;50.710;14.492;2024-01-30T09:10:19;2.02;81.85
65470;DHT22;52067;50.710;14.492;2024-01-30T09:12:46;3.28;79.76
65470;DHT22;52067;50.710;14.492;2024-01-30T09:15:11;3.74;77.37
65470;DHT22;52067;50.710;14.492;2024-01-30T09:17:36;3.91;75.84
65470;DHT22;52067;50.710;14.492;2024-01-30T09:20:02;4.07;75.93
65470;DHT22;52067;50.710;14.492;2024-01-30T09:22:27;3.98;75.81
65470;DHT22;52067;50.710;14.492;2024-01-30T09:24:53;4.27;74.69
65470;DHT22;52067;50.710;14.492;2024-01-30T09:27:18;5.04;72.41
65470;DHT22;52067;50.710;14.492;2024-01-30T09:29:44;4.51;73.97
65470;DHT22;52067;50.710;14.492;2024-01-30T09:32:09;5.07;71.54
65470;DHT22;52067;50.710;14.492;2024-01-30T09:34:35;5.30;71.79
65470;DHT22;52067;50.710;14.492;2024-01-30T09:37:00;5.27;71.14
65470;DHT22;52067;50.710;14.492;2024-01-30T09:39:26;4.61;73.27
65470;DHT22;52067;50.710;14.492;2024-01-30T09:42:00;4.87;72.26
65470;DHT22;52067;50.710;14.492;2024-01-30T09:44:28;4.69;73.44
65470;DHT22;52067;50.710;14.492;2024-01-30T09:46:55;3.77;75.83
65470;DHT22;52067;50.710;14.492;2024-01-30T09:49:20;3.73;76.44
65470;DHT22;52067;50.710;14.492;2024-01-30T09:51:49;3.56;77.66
65470;DHT22;52067;50.710;14.492;2024-01-30T09:54:15;3.36;78.56
65470;DHT22;52067;50.710;14.492;2024-01-30T09:56:41;3.46;78.70
65470;DHT22;52067;50.710;14.492;2024-01-30T09:59:06;3.66;77.57
65470;DHT22;52067;50.710;14.492;2024-01-30T10:01:34;4.24;76.56
65470;DHT22;52067;50.710;14.492;2024-01-30T10:04:00;4.25;75.88
65470;DHT22;52067;50.710;14.492;2024-01-30T10:06:26;4.38;75.83
65470;DHT22;52067;50.710;14.492;2024-01-30T10:08:52;4.48;75.04
65470;DHT22;52067;50.710;14.492;2024-01-30T10:11:18;4.86;73.51
65470;DHT22;52067;50.710;14.492;2024-01-30T10:13:43;5.47;71.99
65470;DHT22;52067;50.710;14.492;2024-01-30T10:16:09;6.33;68.66
65470;DHT22;52067;50.710;14.492;2024-01-30T10:18:34;6.44;67.77
65470;DHT22;52067;50.710;14.492;2024-01-30T10:20:59;6.57;67.84
65470;DHT22;52067;50.710;14.492;2024-01-30T10:23:25;6.85;67.99
65470;DHT22;52067;50.710;14.492;2024-01-30T10:25:51;6.92;66.53
65470;DHT22;52067;50.710;14.492;2024-01-30T10:28:17;6.71;67.57
65470;DHT22;52067;50.710;14.492;2024-01-30T10:30:43;7.46;65.79
65470;DHT22;52067;50.710;14.492;2024-01-30T10:33:08;7.81;64.90
65470;DHT22;52067;50.710;14.492;2024-01-30T10:35:33;8.02;63.66
65470;DHT22;52067;50.710;14.492;2024-01-30T10:37:59;8.87;61.70
65470;DHT22;52067;50.710;14.492;2024-01-30T10:40:27;8.67;61.39
65470;DHT22;52067;50.710;14.492;2024-01-30T10:42:55;8.61;59.63
65470;DHT22;52067;50.710;14.492;2024-01-30T10:45:22;8.15;63.25
65470;DHT22;52067;50.710;14.492;2024-01-30T10:47:48;7.97;63.92
65470;DHT22;52067;50.710;14.492;2024-01-30T10:50:14;8.76;61.51
65470;DHT22;52067;50.710;14.492;2024-01-30T10:52:40;8.30;60.01
65470;DHT22;52067;50.710;14.492;2024-01-30T10:55:07;8.01;62.56
65470;DHT22;52067;50.710;14.492;2024-01-30T10:57:34;8.98;61.16
65470;DHT22;52067;50.710;14.492;2024-01-30T11:00:06;8.42;61.10
65470;DHT22;52067;50.710;14.492;2024-01-30T11:02:37;6.21;66.42
65470;DHT22;52067;50.710;14.492;2024-01-30T11:05:04;6.68;65.79
65470;DHT22;52067;50.710;14.492;2024-01-30T11:07:30;6.06;66.89
65470;DHT22;52067;50.710;14.492;2024-01-30T11:12:25;6.74;66.09
65470;DHT22;52067;50.710;14.492;2024-01-30T11:15:14;6.84;65.10
65470;DHT22;52067;50.710;14.492;2024-01-30T11:20:21;8.03;62.13
65470;DHT22;52067;50.710;14.492;2024-01-30T11:22:47;7.71;63.47
65470;DHT22;52067;50.710;14.492;2024-01-30T11:25:17;6.85;64.91
65470;DHT22;52067;50.710;14.492;2024-01-30T11:27:44;7.82;62.34
65470;DHT22;52067;50.710;14.492;2024-01-30T11:30:10;7.51;63.28
65470;DHT22;52067;50.710;14.492;2024-01-30T11:32:36;6.82;63.69
65470;DHT22;52067;50.710;14.492;2024-01-30T11:35:05;6.91;65.51
65470;DHT22;52067;50.710;14.492;2024-01-30T11:37:32;7.73;63.35
65470;DHT22;52067;50.710;14.492;2024-01-30T11:39:58;8.49;61.36
65470;DHT22;52067;50.710;14.492;2024-01-30T11:42:23;7.48;62.65
65470;DHT22;52067;50.710;14.492;2024-01-30T11:44:52;7.42;63.94
65470;DHT22;52067;50.710;14.492;2024-01-30T11:47:17;6.55;65.93
65470;DHT22;52067;50.710;14.492;2024-01-30T11:49:43;6.85;64.75
65470;DHT22;52067;50.710;14.492;2024-01-30T11:52:09;6.52;65.28
65470;DHT22;52067;50.710;14.492;2024-01-30T11:54:35;6.64;66.69
65470;DHT22;52067;50.710;14.492;2024-01-30T11:57:01;6.19;66.86
65470;DHT22;52067;50.710;14.492;2024-01-30T11:59:26;5.76;68.64
65470;DHT22;52067;50.710;14.492;2024-01-30T12:01:52;6.14;66.94
65470;DHT22;52067;50.710;14.492;2024-01-30T12:04:17;5.19;69.90
65470;DHT22;52067;50.710;14.492;2024-01-30T12:06:43;4.75;71.14
65470;DHT22;52067;50.710;14.492;2024-01-30T12:09:09;4.83;71.11
65470;DHT22;52067;50.710;14.492;2024-01-30T12:11:48;4.65;71.50
65470;DHT22;52067;50.710;14.492;2024-01-30T12:14:16;4.46;72.34
65470;DHT22;52067;50.710;14.492;2024-01-30T12:16:42;4.94;71.54
65470;DHT22;52067;50.710;14.492;2024-01-30T12:19:07;5.01;72.22
65470;DHT22;52067;50.710;14.492;2024-01-30T12:21:34;5.34;70.82
65470;DHT22;52067;50.710;14.492;2024-01-30T12:24:00;5.34;71.00
65470;DHT22;52067;50.710;14.492;2024-01-30T12:26:26;5.93;70.56
65470;DHT22;52067;50.710;14.492;2024-01-30T12:28:54;6.29;67.33
65470;DHT22;52067;50.710;14.492;2024-01-30T12:31:27;5.61;69.18
65470;DHT22;52067;50.710;14.492;2024-01-30T12:33:53;5.16;70.14
65470;DHT22;52067;50.710;14.492;2024-01-30T12:36:18;5.47;70.46
65470;DHT22;52067;50.710;14.492;2024-01-30T12:38:44;5.23;70.11
65470;DHT22;52067;50.710;14.492;2024-01-30T12:41:09;4.96;70.95
65470;DHT22;52067;50.710;14.492;2024-01-30T12:43:35;4.72;71.24
65470;DHT22;52067;50.710;14.492;2024-01-30T12:46:01;5.21;70.60
65470;DHT22;52067;50.710;14.492;2024-01-30T12:48:28;5.30;69.88
65470;DHT22;52067;50.710;14.492;2024-01-30T12:50:55;6.02;67.76
65470;DHT22;52067;50.710;14.492;2024-01-30T12:53:21;6.37;66.18
65470;DHT22;52067;50.710;14.492;2024-01-30T12:55:47;4.69;70.84
65470;DHT22;52067;50.710;14.492;2024-01-30T12:58:12;4.69;70.59
65470;DHT22;52067;50.710;14.492;2024-01-30T13:00:37;4.07;73.52
65470;DHT22;52067;50.710;14.492;2024-01-30T13:03:03;4.37;70.00
65470;DHT22;52067;50.710;14.492;2024-01-30T13:05:28;4.77;70.00
65470;DHT22;52067;50.710;14.492;2024-01-30T13:07:54;4.56;70.50
65470;DHT22;52067;50.710;14.492;2024-01-30T13:10:21;2.73;76.23
65470;DHT22;52067;50.710;14.492;2024-01-30T13:12:47;2.37;77.83
65470;DHT22;52067;50.710;14.492;2024-01-30T13:15:12;2.07;80.08
65470;DHT22;52067;50.710;14.492;2024-01-30T13:17:38;2.09;80.03
65470;DHT22;52067;50.710;14.492;2024-01-30T13:20:03;1.85;81.24
65470;DHT22;52067;50.710;14.492;2024-01-30T13:22:29;1.78;81.22
65470;DHT22;52067;50.710;14.492;2024-01-30T13:24:54;1.63;81.26
65470;DHT22;52067;50.710;14.492;2024-01-30T13:27:20;1.59;81.70
65470;DHT22;52067;50.710;14.492;2024-01-30T13:29:45;1.54;83.02
65470;DHT22;52067;50.710;14.492;2024-01-30T13:32:11;1.47;82.51
65470;DHT22;52067;50.710;14.492;2024-01-30T13:34:36;1.56;82.20
65470;DHT22;52067;50.710;14.492;2024-01-30T13:37:02;1.60;82.20
65470;DHT22;52067;50.710;14.492;2024-01-30T13:39:27;1.37;82.65
65470;DHT22;52067;50.710;14.492;2024-01-30T13:41:54;1.26;82.96
65470;DHT22;52067;50.710;14.492;2024-01-30T13:44:19;1.28;83.71
65470;DHT22;52067;50.710;14.492;2024-01-30T13:46:46;1.37;82.43
65470;DHT22;52067;50.710;14.492;2024-01-30T13:49:11;1.37;82.58
65470;DHT22;52067;50.710;14.492;2024-01-30T13:51:37;1.35;82.80
65470;DHT22;52067;50.710;14.492;2024-01-30T13:54:02;1.50;82.53
65470;DHT22;52067;50.710;14.492;2024-01-30T13:56:28;1.43;83.31
65470;DHT22;52067;50.710;14.492;2024-01-30T13:58:55;1.40;83.08
65470;DHT22;52067;50.710;14.492;2024-01-30T14:01:22;1.53;82.58
65470;DHT22;52067;50.710;14.492;2024-01-30T14:03:47;1.53;82.29
65470;DHT22;52067;50.710;14.492;2024-01-30T14:06:13;1.53;82.70
65470;DHT22;52067;50.710;14.492;2024-01-30T14:08:38;1.50;82.35
65470;DHT22;52067;50.710;14.492;2024-01-30T14:11:04;1.53;82.16
65470;DHT22;52067;50.710;14.492;2024-01-30T14:13:29;1.54;82.08
65470;DHT22;52067;50.710;14.492;2024-01-30T14:15:56;1.33;82.75
65470;DHT22;52067;50.710;14.492;2024-01-30T14:18:22;1.47;82.65
65470;DHT22;52067;50.710;14.492;2024-01-30T14:20:47;1.50;82.50
65470;DHT22;52067;50.710;14.492;2024-01-30T14:23:13;1.59;82.74
65470;DHT22;52067;50.710;14.492;2024-01-30T14:25:38;1.54;82.44
65470;DHT22;52067;50.710;14.492;2024-01-30T14:28:04;1.61;82.60
65470;DHT22;52067;50.710;14.492;2024-01-30T14:30:29;1.70;82.13
65470;DHT22;52067;50.710;14.492;2024-01-30T14:32:54;1.73;81.92
65470;DHT22;52067;50.710;14.492;2024-01-30T14:35:22;1.75;82.15
65470;DHT22;52067;50.710;14.492;2024-01-30T14:37:47;1.64;81.74
65470;DHT22;52067;50.710;14.492;2024-01-30T14:40:13;1.53;82.44
65470;DHT22;52067;50.710;14.492;2024-01-30T14:42:38;1.56;82.38
65470;DHT22;52067;50.710;14.492;2024-01-30T14:45:06;1.30;83.37
65470;DHT22;52067;50.710;14.492;2024-01-30T14:47:33;1.42;83.13
65470;DHT22;52067;50.710;14.492;2024-01-30T14:49:58;1.42;82.77
65470;DHT22;52067;50.710;14.492;2024-01-30T14:52:24;1.51;82.89
65470;DHT22;52067;50.710;14.492;2024-01-30T14:54:49;1.80;82.27
65470;DHT22;52067;50.710;14.492;2024-01-30T14:57:15;1.94;81.29
65470;DHT22;52067;50.710;14.492;2024-01-30T14:59:40;1.68;82.13
65470;DHT22;52067;50.710;14.492;2024-01-30T15:02:06;1.81;81.93
65470;DHT22;52067;50.710;14.492;2024-01-30T15:04:31;1.73;81.58
65470;DHT22;52067;50.710;14.492;2024-01-30T15:06:57;1.67;82.23
65470;DHT22;52067;50.710;14.492;2024-01-30T15:09:22;1.63;82.31
65470;DHT22;52067;50.710;14.492;2024-01-30T15:11:48;1.54;82.80
65470;DHT22;52067;50.710;14.492;2024-01-30T15:14:14;1.39;83.20
65470;DHT22;52067;50.710;14.492;2024-01-30T15:16:40;1.49;82.92
65470;DHT22;52067;50.710;14.492;2024-01-30T15:19:05;1.44;83.45